sensor_id;sensor_type;location;lat;lon;timestamp;P1;durP1;ratioP1;P2;durP2;ratioP2
18933;SDS011;9599;53.706;10.384;2022-10-17T00:01:16;10.40;;;4.50;;
18933;SDS011;9599;53.706;10.384;2022-10-17T00:03:44;7.87;;;4.57;;
18933;SDS011;9599;53.706;10.384;2022-10-17T00:06:12;11.80;;;5.57;;
18933;SDS011;9599;53.706;10.384;2022-10-17T00:08:42;7.37;;;4.93;;
18933;SDS011;9599;53.706;10.384;2022-10-17T00:11:12;7.80;;;4.80;;
18933;SDS011;9599;53.706;10.384;2022-10-17T00:13:41;9.03;;;5.13;;
18933;SDS011;9599;53.706;10.384;2022-10-17T00:16:10;8.33;;;5.00;;
18933;SDS011;9599;53.706;10.384;2022-10-17T00:18:38;6.47;;;4.93;;
18933;SDS011;9599;53.706;10.384;2022-10-17T00:21:13;8.10;;;4.80;;
18933;SDS011;9599;53.706;10.384;2022-10-17T00:23:42;7.13;;;5.07;;
18933;SDS011;9599;53.706;10.384;2022-10-17T00:26:10;10.40;;;5.23;;
18933;SDS011;9599;53.706;10.384;2022-10-17T00:28:38;8.20;;;4.60;;
18933;SDS011;9599;53.706;10.384;2022-10-17T00:31:10;8.43;;;4.80;;
18933;SDS011;9599;53.706;10.384;2022-10-17T00:33:38;7.53;;;5.10;;
18933;SDS011;9599;53.706;10.384;2022-10-17T00:36:08;6.67;;;4.70;;
18933;SDS011;9599;53.706;10.384;2022-10-17T00:38:39;10.30;;;5.33;;
18933;SDS011;9599;53.706;10.384;2022-10-17T00:41:08;9.97;;;5.50;;
18933;SDS011;9599;53.706;10.384;2022-10-17T00:43:49;11.00;;;4.70;;
18933;SDS011;9599;53.706;10.384;2022-10-17T00:46:19;8.33;;;5.03;;
18933;SDS011;9599;53.706;10.384;2022-10-17T00:48:49;6.93;;;4.70;;
18933;SDS011;9599;53.706;10.384;2022-10-17T00:51:18;8.73;;;5.23;;
18933;SDS011;9599;53.706;10.384;2022-10-17T00:53:50;7.77;;;4.87;;
18933;SDS011;9599;53.706;10.384;2022-10-17T00:56:19;7.27;;;5.13;;
18933;SDS011;9599;53.706;10.384;2022-10-17T00:58:47;9.23;;;5.27;;
18933;SDS011;9599;53.706;10.384;2022-10-17T01:01:15;7.20;;;5.10;;
18933;SDS011;9599;53.706;10.384;2022-10-17T01:03:45;7.60;;;4.83;;
18933;SDS011;9599;53.706;10.384;2022-10-17T01:06:13;6.60;;;4.97;;
18933;SDS011;9599;53.706;10.384;2022-10-17T01:08:41;7.23;;;4.83;;
18933;SDS011;9599;53.706;10.384;2022-10-17T01:11:12;6.47;;;5.10;;
18933;SDS011;9599;53.706;10.384;2022-10-17T01:14:02;7.00;;;4.80;;
18933;SDS011;9599;53.706;10.384;2022-10-17T01:16:36;8.27;;;4.93;;
18933;SDS011;9599;53.706;10.384;2022-10-17T01:19:26;8.07;;;5.37;;
18933;SDS011;9599;53.706;10.384;2022-10-17T01:22:08;8.07;;;4.80;;
18933;SDS011;9599;53.706;10.384;2022-10-17T01:24:48;7.43;;;5.13;;
18933;SDS011;9599;53.706;10.384;2022-10-17T01:33:16;6.30;;;5.30;;
18933;SDS011;9599;53.706;10.384;2022-10-17T01:35:55;6.73;;;5.00;;
18933;SDS011;9599;53.706;10.384;2022-10-17T01:38:32;7.40;;;5.13;;
18933;SDS011;9599;53.706;10.384;2022-10-17T01:41:04;7.40;;;4.80;;
18933;SDS011;9599;53.706;10.384;2022-10-17T01:43:43;5.93;;;4.80;;
18933;SDS011;9599;53.706;10.384;2022-10-17T01:46:21;7.77;;;5.10;;
18933;SDS011;9599;53.706;10.384;2022-10-17T01:48:53;6.73;;;5.17;;
18933;SDS011;9599;53.706;10.384;2022-10-17T01:51:26;8.97;;;5.37;;
18933;SDS011;9599;53.706;10.384;2022-10-17T01:54:00;7.73;;;5.23;;
18933;SDS011;9599;53.706;10.384;2022-10-17T01:56:32;11.60;;;4.97;;
18933;SDS011;9599;53.706;10.384;2022-10-17T01:59:03;8.63;;;5.17;;
18933;SDS011;9599;53.706;10.384;2022-10-17T02:01:38;6.53;;;5.30;;
18933;SDS011;9599;53.706;10.384;2022-10-17T02:04:08;6.93;;;4.70;;
18933;SDS011;9599;53.706;10.384;2022-10-17T02:06:37;7.20;;;4.80;;
18933;SDS011;9599;53.706;10.384;2022-10-17T02:09:15;7.73;;;4.93;;
18933;SDS011;9599;53.706;10.384;2022-10-17T02:11:53;6.47;;;4.90;;
18933;SDS011;9599;53.706;10.384;2022-10-17T02:14:40;7.87;;;4.90;;
18933;SDS011;9599;53.706;10.384;2022-10-17T02:17:23;7.30;;;5.00;;
18933;SDS011;9599;53.706;10.384;2022-10-17T02:20:04;7.30;;;4.90;;
18933;SDS011;9599;53.706;10.384;2022-10-17T02:22:43;6.53;;;4.83;;
18933;SDS011;9599;53.706;10.384;2022-10-17T02:25:17;6.10;;;4.87;;
18933;SDS011;9599;53.706;10.384;2022-10-17T02:27:57;9.47;;;5.23;;
18933;SDS011;9599;53.706;10.384;2022-10-17T02:30:33;5.60;;;4.97;;
18933;SDS011;9599;53.706;10.384;2022-10-17T02:33:06;7.90;;;5.00;;
18933;SDS011;9599;53.706;10.384;2022-10-17T02:35:39;6.57;;;4.60;;
18933;SDS011;9599;53.706;10.384;2022-10-17T02:38:11;7.40;;;5.20;;
18933;SDS011;9599;53.706;10.384;2022-10-17T02:40:41;7.37;;;5.13;;
18933;SDS011;9599;53.706;10.384;2022-10-17T02:43:12;5.93;;;4.57;;
18933;SDS011;9599;53.706;10.384;2022-10-17T02:45:41;8.13;;;4.90;;
18933;SDS011;9599;53.706;10.384;2022-10-17T02:48:11;6.90;;;4.83;;
18933;SDS011;9599;53.706;10.384;2022-10-17T02:50:47;5.30;;;4.80;;
18933;SDS011;9599;53.706;10.384;2022-10-17T02:53:22;6.87;;;5.37;;
18933;SDS011;9599;53.706;10.384;2022-10-17T02:55:57;4.97;;;4.47;;
18933;SDS011;9599;53.706;10.384;2022-10-17T02:58:31;5.60;;;4.73;;
18933;SDS011;9599;53.706;10.384;2022-10-17T03:01:00;5.00;;;4.50;;
18933;SDS011;9599;53.706;10.384;2022-10-17T03:03:32;7.73;;;4.73;;
18933;SDS011;9599;53.706;10.384;2022-10-17T03:06:00;6.77;;;5.17;;
18933;SDS011;9599;53.706;10.384;2022-10-17T03:08:28;6.20;;;4.40;;
18933;SDS011;9599;53.706;10.384;2022-10-17T03:10:56;8.07;;;4.90;;
18933;SDS011;9599;53.706;10.384;2022-10-17T03:13:26;4.83;;;4.30;;
18933;SDS011;9599;53.706;10.384;2022-10-17T03:15:54;6.50;;;4.60;;
18933;SDS011;9599;53.706;10.384;2022-10-17T03:18:23;6.23;;;4.47;;
18933;SDS011;9599;53.706;10.384;2022-10-17T03:20:57;5.73;;;4.97;;
18933;SDS011;9599;53.706;10.384;2022-10-17T03:23:25;5.40;;;4.40;;
18933;SDS011;9599;53.706;10.384;2022-10-17T03:25:53;6.07;;;4.53;;
18933;SDS011;9599;53.706;10.384;2022-10-17T03:28:21;5.27;;;4.37;;
18933;SDS011;9599;53.706;10.384;2022-10-17T03:30:49;6.53;;;4.60;;
18933;SDS011;9599;53.706;10.384;2022-10-17T03:33:17;6.13;;;4.70;;
18933;SDS011;9599;53.706;10.384;2022-10-17T03:35:45;7.43;;;4.73;;
18933;SDS011;9599;53.706;10.384;2022-10-17T03:38:20;5.87;;;4.40;;
18933;SDS011;9599;53.706;10.384;2022-10-17T03:40:53;5.50;;;4.33;;
18933;SDS011;9599;53.706;10.384;2022-10-17T03:43:21;5.47;;;4.40;;
18933;SDS011;9599;53.706;10.384;2022-10-17T03:45:49;5.50;;;4.10;;
18933;SDS011;9599;53.706;10.384;2022-10-17T03:48:18;5.13;;;3.80;;
18933;SDS011;9599;53.706;10.384;2022-10-17T03:50:45;4.60;;;4.20;;
18933;SDS011;9599;53.706;10.384;2022-10-17T03:53:13;4.43;;;4.03;;
18933;SDS011;9599;53.706;10.384;2022-10-17T03:55:43;5.97;;;4.33;;
18933;SDS011;9599;53.706;10.384;2022-10-17T03:58:10;4.63;;;4.20;;
18933;SDS011;9599;53.706;10.384;2022-10-17T04:00:38;6.03;;;3.90;;
18933;SDS011;9599;53.706;10.384;2022-10-17T04:03:06;5.27;;;4.30;;
18933;SDS011;9599;53.706;10.384;2022-10-17T04:05:40;4.97;;;3.93;;
18933;SDS011;9599;53.706;10.384;2022-10-17T04:08:09;4.70;;;4.20;;
18933;SDS011;9599;53.706;10.384;2022-10-17T04:11:02;4.30;;;3.90;;
18933;SDS011;9599;53.706;10.384;2022-10-17T04:13:32;4.97;;;4.47;;
18933;SDS011;9599;53.706;10.384;2022-10-17T04:16:01;5.43;;;4.20;;
18933;SDS011;9599;53.706;10.384;2022-10-17T04:18:31;4.50;;;4.10;;
18933;SDS011;9599;53.706;10.384;2022-10-17T04:21:00;4.40;;;4.00;;
18933;SDS011;9599;53.706;10.384;2022-10-17T04:23:29;4.87;;;4.07;;
18933;SDS011;9599;53.706;10.384;2022-10-17T04:26:06;7.40;;;4.17;;
18933;SDS011;9599;53.706;10.384;2022-10-17T04:28:34;4.40;;;3.87;;
18933;SDS011;9599;53.706;10.384;2022-10-17T04:31:08;4.43;;;3.93;;
18933;SDS011;9599;53.706;10.384;2022-10-17T04:33:59;4.90;;;3.80;;
18933;SDS011;9599;53.706;10.384;2022-10-17T04:36:27;5.37;;;3.73;;
18933;SDS011;9599;53.706;10.384;2022-10-17T04:38:55;4.73;;;3.80;;
18933;SDS011;9599;53.706;10.384;2022-10-17T04:41:24;3.83;;;3.53;;
18933;SDS011;9599;53.706;10.384;2022-10-17T04:43:52;6.20;;;3.60;;
18933;SDS011;9599;53.706;10.384;2022-10-17T04:46:21;3.87;;;3.50;;
18933;SDS011;9599;53.706;10.384;2022-10-17T04:48:49;4.00;;;3.70;;
18933;SDS011;9599;53.706;10.384;2022-10-17T04:51:17;3.73;;;3.37;;
18933;SDS011;9599;53.706;10.384;2022-10-17T04:54:14;3.97;;;3.57;;
18933;SDS011;9599;53.706;10.384;2022-10-17T04:56:47;6.13;;;3.80;;
18933;SDS011;9599;53.706;10.384;2022-10-17T04:59:15;6.40;;;4.20;;
18933;SDS011;9599;53.706;10.384;2022-10-17T05:01:44;6.27;;;4.10;;
18933;SDS011;9599;53.706;10.384;2022-10-17T05:04:12;4.50;;;4.10;;
18933;SDS011;9599;53.706;10.384;2022-10-17T05:06:40;5.50;;;3.87;;
18933;SDS011;9599;53.706;10.384;2022-10-17T05:09:40;4.40;;;4.00;;
18933;SDS011;9599;53.706;10.384;2022-10-17T05:12:10;4.20;;;3.80;;
18933;SDS011;9599;53.706;10.384;2022-10-17T05:14:41;3.93;;;3.50;;
18933;SDS011;9599;53.706;10.384;2022-10-17T05:17:09;5.33;;;3.80;;
18933;SDS011;9599;53.706;10.384;2022-10-17T05:19:37;5.70;;;3.97;;
18933;SDS011;9599;53.706;10.384;2022-10-17T05:22:06;4.07;;;3.67;;
18933;SDS011;9599;53.706;10.384;2022-10-17T05:24:34;5.30;;;3.60;;
18933;SDS011;9599;53.706;10.384;2022-10-17T05:27:02;4.93;;;4.00;;
18933;SDS011;9599;53.706;10.384;2022-10-17T05:29:32;4.90;;;3.90;;
18933;SDS011;9599;53.706;10.384;2022-10-17T05:32:08;5.43;;;4.07;;
18933;SDS011;9599;53.706;10.384;2022-10-17T05:34:36;4.30;;;3.63;;
18933;SDS011;9599;53.706;10.384;2022-10-17T05:37:04;5.87;;;3.83;;
18933;SDS011;9599;53.706;10.384;2022-10-17T05:39:33;5.27;;;4.10;;
18933;SDS011;9599;53.706;10.384;2022-10-17T05:42:01;4.67;;;3.73;;
18933;SDS011;9599;53.706;10.384;2022-10-17T05:44:32;4.37;;;3.97;;
18933;SDS011;9599;53.706;10.384;2022-10-17T05:47:01;5.43;;;4.27;;
18933;SDS011;9599;53.706;10.384;2022-10-17T05:49:30;5.27;;;3.73;;
18933;SDS011;9599;53.706;10.384;2022-10-17T05:52:14;4.40;;;3.93;;
18933;SDS011;9599;53.706;10.384;2022-10-17T05:54:57;4.67;;;3.97;;
18933;SDS011;9599;53.706;10.384;2022-10-17T05:57:25;4.63;;;3.97;;
18933;SDS011;9599;53.706;10.384;2022-10-17T05:59:56;6.70;;;4.07;;
18933;SDS011;9599;53.706;10.384;2022-10-17T06:02:24;4.17;;;3.67;;
18933;SDS011;9599;53.706;10.384;2022-10-17T06:04:54;5.37;;;3.80;;
18933;SDS011;9599;53.706;10.384;2022-10-17T06:07:23;5.40;;;4.17;;
18933;SDS011;9599;53.706;10.384;2022-10-17T06:09:51;5.53;;;4.00;;
18933;SDS011;9599;53.706;10.384;2022-10-17T06:12:20;4.90;;;4.03;;
18933;SDS011;9599;53.706;10.384;2022-10-17T06:14:48;4.57;;;4.17;;
18933;SDS011;9599;53.706;10.384;2022-10-17T06:17:17;4.47;;;4.07;;
18933;SDS011;9599;53.706;10.384;2022-10-17T06:19:45;5.67;;;4.20;;
18933;SDS011;9599;53.706;10.384;2022-10-17T06:22:14;4.43;;;4.03;;
18933;SDS011;9599;53.706;10.384;2022-10-17T06:24:44;5.70;;;4.37;;
18933;SDS011;9599;53.706;10.384;2022-10-17T06:27:13;5.07;;;3.90;;
18933;SDS011;9599;53.706;10.384;2022-10-17T06:29:41;4.77;;;4.17;;
18933;SDS011;9599;53.706;10.384;2022-10-17T06:32:09;5.70;;;4.60;;
18933;SDS011;9599;53.706;10.384;2022-10-17T06:34:53;5.23;;;4.30;;
18933;SDS011;9599;53.706;10.384;2022-10-17T06:37:21;4.90;;;3.90;;
18933;SDS011;9599;53.706;10.384;2022-10-17T06:39:48;4.97;;;3.90;;
18933;SDS011;9599;53.706;10.384;2022-10-17T06:42:20;4.33;;;3.93;;
18933;SDS011;9599;53.706;10.384;2022-10-17T06:45:05;4.50;;;4.00;;
18933;SDS011;9599;53.706;10.384;2022-10-17T06:47:52;4.40;;;3.80;;
18933;SDS011;9599;53.706;10.384;2022-10-17T06:50:42;6.00;;;3.93;;
18933;SDS011;9599;53.706;10.384;2022-10-17T06:53:22;4.07;;;3.77;;
18933;SDS011;9599;53.706;10.384;2022-10-17T06:56:24;4.53;;;3.87;;
18933;SDS011;9599;53.706;10.384;2022-10-17T06:59:01;4.80;;;3.80;;
18933;SDS011;9599;53.706;10.384;2022-10-17T07:01:33;8.63;;;4.23;;
18933;SDS011;9599;53.706;10.384;2022-10-17T07:04:03;6.57;;;3.87;;
18933;SDS011;9599;53.706;10.384;2022-10-17T07:06:33;5.23;;;4.00;;
18933;SDS011;9599;53.706;10.384;2022-10-17T07:09:10;4.30;;;3.90;;
18933;SDS011;9599;53.706;10.384;2022-10-17T07:11:38;5.10;;;4.10;;
18933;SDS011;9599;53.706;10.384;2022-10-17T07:14:06;4.10;;;3.63;;
18933;SDS011;9599;53.706;10.384;2022-10-17T07:16:34;3.97;;;3.63;;
18933;SDS011;9599;53.706;10.384;2022-10-17T07:19:08;4.40;;;4.00;;
18933;SDS011;9599;53.706;10.384;2022-10-17T07:21:39;4.10;;;3.70;;
18933;SDS011;9599;53.706;10.384;2022-10-17T07:24:09;3.67;;;3.23;;
18933;SDS011;9599;53.706;10.384;2022-10-17T07:26:39;3.93;;;3.53;;
18933;SDS011;9599;53.706;10.384;2022-10-17T07:29:08;3.53;;;3.23;;
18933;SDS011;9599;53.706;10.384;2022-10-17T07:31:41;4.13;;;3.30;;
18933;SDS011;9599;53.706;10.384;2022-10-17T07:34:10;4.70;;;3.60;;
18933;SDS011;9599;53.706;10.384;2022-10-17T07:36:40;4.90;;;3.60;;
18933;SDS011;9599;53.706;10.384;2022-10-17T07:39:09;3.97;;;3.23;;
18933;SDS011;9599;53.706;10.384;2022-10-17T07:41:38;4.00;;;3.20;;
18933;SDS011;9599;53.706;10.384;2022-10-17T07:44:06;3.47;;;3.17;;
18933;SDS011;9599;53.706;10.384;2022-10-17T07:46:40;4.83;;;3.40;;
18933;SDS011;9599;53.706;10.384;2022-10-17T07:49:09;4.40;;;3.77;;
18933;SDS011;9599;53.706;10.384;2022-10-17T07:51:40;3.43;;;3.10;;
18933;SDS011;9599;53.706;10.384;2022-10-17T07:54:08;3.97;;;3.27;;
18933;SDS011;9599;53.706;10.384;2022-10-17T07:56:36;3.30;;;2.90;;
18933;SDS011;9599;53.706;10.384;2022-10-17T07:59:04;5.50;;;3.37;;
18933;SDS011;9599;53.706;10.384;2022-10-17T08:01:35;4.37;;;3.17;;
18933;SDS011;9599;53.706;10.384;2022-10-17T08:04:03;4.67;;;3.03;;
18933;SDS011;9599;53.706;10.384;2022-10-17T08:06:31;5.50;;;2.90;;
18933;SDS011;9599;53.706;10.384;2022-10-17T08:09:00;3.47;;;3.00;;
18933;SDS011;9599;53.706;10.384;2022-10-17T08:11:28;4.17;;;3.40;;
18933;SDS011;9599;53.706;10.384;2022-10-17T08:13:56;3.20;;;2.83;;
18933;SDS011;9599;53.706;10.384;2022-10-17T08:16:24;5.13;;;2.80;;
18933;SDS011;9599;53.706;10.384;2022-10-17T08:18:52;3.87;;;2.90;;
18933;SDS011;9599;53.706;10.384;2022-10-17T08:21:20;2.93;;;2.63;;
18933;SDS011;9599;53.706;10.384;2022-10-17T08:23:48;3.63;;;2.60;;
18933;SDS011;9599;53.706;10.384;2022-10-17T08:26:17;5.33;;;3.23;;
18933;SDS011;9599;53.706;10.384;2022-10-17T08:28:46;3.57;;;3.13;;
18933;SDS011;9599;53.706;10.384;2022-10-17T08:31:15;3.13;;;2.83;;
18933;SDS011;9599;53.706;10.384;2022-10-17T08:33:44;3.30;;;3.00;;
18933;SDS011;9599;53.706;10.384;2022-10-17T08:36:13;2.97;;;2.73;;
18933;SDS011;9599;53.706;10.384;2022-10-17T08:38:42;4.33;;;2.70;;
18933;SDS011;9599;53.706;10.384;2022-10-17T08:41:21;3.83;;;3.00;;
18933;SDS011;9599;53.706;10.384;2022-10-17T08:44:02;3.10;;;2.80;;
18933;SDS011;9599;53.706;10.384;2022-10-17T08:46:40;5.27;;;3.20;;
18933;SDS011;9599;53.706;10.384;2022-10-17T08:49:12;5.27;;;3.10;;
18933;SDS011;9599;53.706;10.384;2022-10-17T08:51:51;3.43;;;2.80;;
18933;SDS011;9599;53.706;10.384;2022-10-17T08:54:33;3.33;;;2.70;;
18933;SDS011;9599;53.706;10.384;2022-10-17T08:57:11;3.50;;;3.03;;
18933;SDS011;9599;53.706;10.384;2022-10-17T08:59:41;4.77;;;2.80;;
18933;SDS011;9599;53.706;10.384;2022-10-17T09:02:14;4.23;;;2.97;;
18933;SDS011;9599;53.706;10.384;2022-10-17T09:04:54;3.33;;;3.00;;
18933;SDS011;9599;53.706;10.384;2022-10-17T09:07:38;3.53;;;3.20;;
18933;SDS011;9599;53.706;10.384;2022-10-17T09:10:13;4.70;;;3.40;;
18933;SDS011;9599;53.706;10.384;2022-10-17T09:12:50;5.70;;;3.40;;
18933;SDS011;9599;53.706;10.384;2022-10-17T09:15:37;4.50;;;3.37;;
18933;SDS011;9599;53.706;10.384;2022-10-17T09:18:14;4.80;;;3.23;;
18933;SDS011;9599;53.706;10.384;2022-10-17T09:20:48;4.60;;;3.30;;
18933;SDS011;9599;53.706;10.384;2022-10-17T09:23:21;3.73;;;3.27;;
18933;SDS011;9599;53.706;10.384;2022-10-17T09:25:53;3.40;;;3.10;;
18933;SDS011;9599;53.706;10.384;2022-10-17T09:28:24;4.10;;;3.03;;
18933;SDS011;9599;53.706;10.384;2022-10-17T09:30:58;3.73;;;2.93;;
18933;SDS011;9599;53.706;10.384;2022-10-17T09:33:29;4.23;;;3.17;;
18933;SDS011;9599;53.706;10.384;2022-10-17T09:36:20;3.37;;;3.03;;
18933;SDS011;9599;53.706;10.384;2022-10-17T09:38:51;6.00;;;2.80;;
18933;SDS011;9599;53.706;10.384;2022-10-17T09:41:21;5.57;;;3.07;;
18933;SDS011;9599;53.706;10.384;2022-10-17T09:44:15;4.20;;;3.17;;
18933;SDS011;9599;53.706;10.384;2022-10-17T09:46:49;3.03;;;2.80;;
18933;SDS011;9599;53.706;10.384;2022-10-17T09:49:29;3.23;;;2.80;;
18933;SDS011;9599;53.706;10.384;2022-10-17T09:51:59;3.43;;;3.00;;
18933;SDS011;9599;53.706;10.384;2022-10-17T09:54:32;6.90;;;3.17;;
18933;SDS011;9599;53.706;10.384;2022-10-17T09:57:06;3.17;;;2.97;;
18933;SDS011;9599;53.706;10.384;2022-10-17T09:59:38;5.30;;;3.23;;
18933;SDS011;9599;53.706;10.384;2022-10-17T10:02:08;3.60;;;3.30;;
18933;SDS011;9599;53.706;10.384;2022-10-17T10:04:50;3.83;;;3.50;;
18933;SDS011;9599;53.706;10.384;2022-10-17T10:07:31;6.53;;;3.47;;
18933;SDS011;9599;53.706;10.384;2022-10-17T10:10:01;4.07;;;3.10;;
18933;SDS011;9599;53.706;10.384;2022-10-17T10:12:31;3.97;;;2.93;;
18933;SDS011;9599;53.706;10.384;2022-10-17T10:15:02;3.30;;;3.00;;
18933;SDS011;9599;53.706;10.384;2022-10-17T10:17:57;5.20;;;3.03;;
18933;SDS011;9599;53.706;10.384;2022-10-17T10:20:27;4.97;;;3.40;;
18933;SDS011;9599;53.706;10.384;2022-10-17T10:25:48;3.40;;;3.10;;
18933;SDS011;9599;53.706;10.384;2022-10-17T10:28:24;4.67;;;3.73;;
18933;SDS011;9599;53.706;10.384;2022-10-17T10:30:54;3.60;;;2.87;;
18933;SDS011;9599;53.706;10.384;2022-10-17T10:33:25;5.43;;;2.90;;
18933;SDS011;9599;53.706;10.384;2022-10-17T10:35:57;4.67;;;3.00;;
18933;SDS011;9599;53.706;10.384;2022-10-17T10:38:27;4.10;;;3.30;;
18933;SDS011;9599;53.706;10.384;2022-10-17T10:40:56;4.33;;;3.50;;
18933;SDS011;9599;53.706;10.384;2022-10-17T10:43:30;8.43;;;3.20;;
18933;SDS011;9599;53.706;10.384;2022-10-17T10:46:03;4.10;;;3.50;;
18933;SDS011;9599;53.706;10.384;2022-10-17T10:48:48;3.67;;;3.13;;
18933;SDS011;9599;53.706;10.384;2022-10-17T10:51:18;5.50;;;3.13;;
18933;SDS011;9599;53.706;10.384;2022-10-17T10:53:52;4.40;;;3.40;;
18933;SDS011;9599;53.706;10.384;2022-10-17T10:56:25;4.33;;;3.13;;
18933;SDS011;9599;53.706;10.384;2022-10-17T10:58:57;3.73;;;2.97;;
18933;SDS011;9599;53.706;10.384;2022-10-17T11:01:33;5.07;;;3.37;;
18933;SDS011;9599;53.706;10.384;2022-10-17T11:04:13;4.50;;;2.83;;
18933;SDS011;9599;53.706;10.384;2022-10-17T11:06:47;4.60;;;3.10;;
18933;SDS011;9599;53.706;10.384;2022-10-17T11:09:23;5.10;;;3.37;;
18933;SDS011;9599;53.706;10.384;2022-10-17T11:12:00;4.70;;;3.60;;
18933;SDS011;9599;53.706;10.384;2022-10-17T11:14:36;3.50;;;3.03;;
18933;SDS011;9599;53.706;10.384;2022-10-17T11:17:14;4.20;;;3.07;;
18933;SDS011;9599;53.706;10.384;2022-10-17T11:19:51;4.10;;;3.50;;
18933;SDS011;9599;53.706;10.384;2022-10-17T11:22:26;5.67;;;3.17;;
18933;SDS011;9599;53.706;10.384;2022-10-17T11:24:58;5.63;;;3.77;;
18933;SDS011;9599;53.706;10.384;2022-10-17T11:27:31;4.70;;;3.43;;
18933;SDS011;9599;53.706;10.384;2022-10-17T11:30:00;3.50;;;3.20;;
18933;SDS011;9599;53.706;10.384;2022-10-17T11:32:33;4.57;;;3.23;;
18933;SDS011;9599;53.706;10.384;2022-10-17T11:35:06;3.77;;;3.00;;
18933;SDS011;9599;53.706;10.384;2022-10-17T11:37:43;4.93;;;3.50;;
18933;SDS011;9599;53.706;10.384;2022-10-17T11:40:16;6.10;;;3.37;;
18933;SDS011;9599;53.706;10.384;2022-10-17T11:42:51;4.43;;;3.20;;
18933;SDS011;9599;53.706;10.384;2022-10-17T11:45:24;4.47;;;3.33;;
18933;SDS011;9599;53.706;10.384;2022-10-17T11:47:57;4.13;;;3.50;;
18933;SDS011;9599;53.706;10.384;2022-10-17T11:50:28;4.53;;;3.53;;
18933;SDS011;9599;53.706;10.384;2022-10-17T11:53:19;3.50;;;3.20;;
18933;SDS011;9599;53.706;10.384;2022-10-17T11:55:50;5.20;;;3.17;;
18933;SDS011;9599;53.706;10.384;2022-10-17T11:58:25;6.53;;;4.00;;
18933;SDS011;9599;53.706;10.384;2022-10-17T12:00:59;4.50;;;3.50;;
18933;SDS011;9599;53.706;10.384;2022-10-17T12:03:49;3.57;;;3.23;;
18933;SDS011;9599;53.706;10.384;2022-10-17T12:06:30;6.13;;;3.00;;
18933;SDS011;9599;53.706;10.384;2022-10-17T12:09:16;4.43;;;3.23;;
18933;SDS011;9599;53.706;10.384;2022-10-17T12:11:51;4.13;;;3.43;;
18933;SDS011;9599;53.706;10.384;2022-10-17T12:14:35;4.20;;;3.10;;
18933;SDS011;9599;53.706;10.384;2022-10-17T12:17:21;4.17;;;3.53;;
18933;SDS011;9599;53.706;10.384;2022-10-17T12:23:20;4.87;;;3.40;;
18933;SDS011;9599;53.706;10.384;2022-10-17T12:25:53;4.00;;;3.50;;
18933;SDS011;9599;53.706;10.384;2022-10-17T12:28:29;4.23;;;3.60;;
18933;SDS011;9599;53.706;10.384;2022-10-17T12:30:59;4.63;;;3.60;;
18933;SDS011;9599;53.706;10.384;2022-10-17T12:33:31;6.07;;;3.83;;
18933;SDS011;9599;53.706;10.384;2022-10-17T12:42:30;4.63;;;4.13;;
18933;SDS011;9599;53.706;10.384;2022-10-17T12:44:59;4.60;;;4.10;;
18933;SDS011;9599;53.706;10.384;2022-10-17T12:47:28;6.80;;;5.10;;
18933;SDS011;9599;53.706;10.384;2022-10-17T12:53:07;7.53;;;5.90;;
18933;SDS011;9599;53.706;10.384;2022-10-17T12:55:46;6.90;;;5.07;;
18933;SDS011;9599;53.706;10.384;2022-10-17T12:58:16;7.03;;;4.70;;
18933;SDS011;9599;53.706;10.384;2022-10-17T13:00:46;5.10;;;4.60;;
18933;SDS011;9599;53.706;10.384;2022-10-17T13:03:40;6.20;;;4.80;;
18933;SDS011;9599;53.706;10.384;2022-10-17T13:06:12;7.57;;;5.17;;
18933;SDS011;9599;53.706;10.384;2022-10-17T13:08:46;6.37;;;4.70;;
18933;SDS011;9599;53.706;10.384;2022-10-17T13:11:25;7.47;;;5.20;;
18933;SDS011;9599;53.706;10.384;2022-10-17T13:13:56;10.50;;;4.50;;
18933;SDS011;9599;53.706;10.384;2022-10-17T13:16:26;5.80;;;4.43;;
18933;SDS011;9599;53.706;10.384;2022-10-17T13:18:56;6.50;;;4.80;;
18933;SDS011;9599;53.706;10.384;2022-10-17T13:21:24;6.97;;;4.90;;
18933;SDS011;9599;53.706;10.384;2022-10-17T13:23:53;7.67;;;5.43;;
18933;SDS011;9599;53.706;10.384;2022-10-17T13:26:22;7.77;;;4.80;;
18933;SDS011;9599;53.706;10.384;2022-10-17T13:29:02;5.77;;;4.63;;
18933;SDS011;9599;53.706;10.384;2022-10-17T13:31:33;7.07;;;4.50;;
18933;SDS011;9599;53.706;10.384;2022-10-17T13:34:03;8.07;;;4.73;;
18933;SDS011;9599;53.706;10.384;2022-10-17T13:36:32;7.07;;;4.93;;
18933;SDS011;9599;53.706;10.384;2022-10-17T13:39:04;11.10;;;5.73;;
18933;SDS011;9599;53.706;10.384;2022-10-17T13:41:40;10.33;;;5.93;;
18933;SDS011;9599;53.706;10.384;2022-10-17T13:44:11;9.50;;;6.33;;
18933;SDS011;9599;53.706;10.384;2022-10-17T13:46:41;12.27;;;6.40;;
18933;SDS011;9599;53.706;10.384;2022-10-17T13:49:11;12.47;;;7.50;;
18933;SDS011;9599;53.706;10.384;2022-10-17T13:51:47;11.37;;;7.70;;
18933;SDS011;9599;53.706;10.384;2022-10-17T13:57:13;10.83;;;6.97;;
18933;SDS011;9599;53.706;10.384;2022-10-17T13:59:45;8.17;;;7.13;;
18933;SDS011;9599;53.706;10.384;2022-10-17T14:02:16;10.60;;;7.30;;
18933;SDS011;9599;53.706;10.384;2022-10-17T14:04:46;8.83;;;7.13;;
18933;SDS011;9599;53.706;10.384;2022-10-17T14:07:43;10.03;;;7.27;;
18933;SDS011;9599;53.706;10.384;2022-10-17T14:10:36;13.90;;;8.87;;
18933;SDS011;9599;53.706;10.384;2022-10-17T14:13:06;11.93;;;8.20;;
18933;SDS011;9599;53.706;10.384;2022-10-17T14:15:45;11.20;;;8.03;;
18933;SDS011;9599;53.706;10.384;2022-10-17T14:18:16;10.10;;;8.10;;
18933;SDS011;9599;53.706;10.384;2022-10-17T14:20:48;9.93;;;8.23;;
18933;SDS011;9599;53.706;10.384;2022-10-17T14:23:40;11.27;;;8.20;;
18933;SDS011;9599;53.706;10.384;2022-10-17T14:26:10;12.13;;;8.47;;
18933;SDS011;9599;53.706;10.384;2022-10-17T14:28:40;10.63;;;8.17;;
18933;SDS011;9599;53.706;10.384;2022-10-17T14:31:17;14.77;;;9.60;;
18933;SDS011;9599;53.706;10.384;2022-10-17T14:33:52;12.47;;;8.03;;
18933;SDS011;9599;53.706;10.384;2022-10-17T14:36:28;10.90;;;8.17;;
18933;SDS011;9599;53.706;10.384;2022-10-17T14:39:02;11.80;;;8.13;;
18933;SDS011;9599;53.706;10.384;2022-10-17T14:41:37;11.87;;;9.00;;
18933;SDS011;9599;53.706;10.384;2022-10-17T14:44:13;9.33;;;8.10;;
18933;SDS011;9599;53.706;10.384;2022-10-17T14:46:47;12.00;;;7.90;;
18933;SDS011;9599;53.706;10.384;2022-10-17T14:49:20;12.03;;;8.50;;
18933;SDS011;9599;53.706;10.384;2022-10-17T14:52:22;10.57;;;8.00;;
18933;SDS011;9599;53.706;10.384;2022-10-17T14:54:56;13.20;;;8.37;;
18933;SDS011;9599;53.706;10.384;2022-10-17T14:57:27;12.10;;;8.80;;
18933;SDS011;9599;53.706;10.384;2022-10-17T15:00:08;10.67;;;8.40;;
18933;SDS011;9599;53.706;10.384;2022-10-17T15:02:41;9.97;;;8.60;;
18933;SDS011;9599;53.706;10.384;2022-10-17T15:05:09;11.20;;;8.83;;
18933;SDS011;9599;53.706;10.384;2022-10-17T15:07:38;10.57;;;8.67;;
18933;SDS011;9599;53.706;10.384;2022-10-17T15:10:08;11.77;;;8.90;;
18933;SDS011;9599;53.706;10.384;2022-10-17T15:12:52;11.70;;;9.57;;
18933;SDS011;9599;53.706;10.384;2022-10-17T15:15:29;12.20;;;9.20;;
18933;SDS011;9599;53.706;10.384;2022-10-17T15:18:00;14.10;;;10.10;;
18933;SDS011;9599;53.706;10.384;2022-10-17T15:20:28;14.33;;;10.37;;
18933;SDS011;9599;53.706;10.384;2022-10-17T15:22:57;14.23;;;10.10;;
18933;SDS011;9599;53.706;10.384;2022-10-17T15:25:26;12.30;;;9.70;;
18933;SDS011;9599;53.706;10.384;2022-10-17T15:27:55;13.70;;;10.23;;
18933;SDS011;9599;53.706;10.384;2022-10-17T15:30:25;14.43;;;10.90;;
18933;SDS011;9599;53.706;10.384;2022-10-17T15:32:54;13.47;;;10.33;;
18933;SDS011;9599;53.706;10.384;2022-10-17T15:35:24;13.43;;;10.33;;
18933;SDS011;9599;53.706;10.384;2022-10-17T15:37:52;12.90;;;9.50;;
18933;SDS011;9599;53.706;10.384;2022-10-17T15:40:21;13.90;;;9.73;;
18933;SDS011;9599;53.706;10.384;2022-10-17T15:42:50;13.00;;;10.07;;
18933;SDS011;9599;53.706;10.384;2022-10-17T15:45:18;14.00;;;10.20;;